createdAt,value
2018-09-03T00:02:23.090Z,13.80
2018-09-03T00:04:51.234Z,13.90
2018-09-03T00:07:19.415Z,13.90
2018-09-03T00:09:47.563Z,13.90
2018-09-03T00:12:15.702Z,13.80
2018-09-03T00:14:43.898Z,13.90
2018-09-03T00:17:12.055Z,13.80
2018-09-03T00:19:40.213Z,13.80
2018-09-03T00:22:08.400Z,13.80
2018-09-03T00:24:36.551Z,13.80
2018-09-03T00:27:04.726Z,13.80
2018-09-03T00:29:32.913Z,13.80
2018-09-03T00:32:06.601Z,13.80
2018-09-03T00:34:40.149Z,13.80
2018-09-03T00:37:13.806Z,13.80
2018-09-03T00:39:47.334Z,13.80
2018-09-03T00:42:20.846Z,13.80
2018-09-03T00:44:54.539Z,13.80
2018-09-03T00:47:22.695Z,13.80
2018-09-03T00:49:50.858Z,13.80
2018-09-03T00:52:19.006Z,13.80
2018-09-03T00:54:47.162Z,13.80
2018-09-03T00:57:15.355Z,13.80
2018-09-03T00:59:43.504Z,13.80
2018-09-03T01:02:11.641Z,13.90
2018-09-03T01:04:39.793Z,13.90
2018-09-03T01:07:07.985Z,13.90
2018-09-03T01:09:36.096Z,13.90
2018-09-03T01:12:04.242Z,13.90
2018-09-03T01:14:32.400Z,13.90
2018-09-03T01:17:00.549Z,13.90
2018-09-03T01:19:28.698Z,13.90
2018-09-03T01:21:56.857Z,13.90
2018-09-03T01:24:25.027Z,13.90
2018-09-03T01:26:53.206Z,13.90
2018-09-03T01:29:21.782Z,13.90
2018-09-03T01:31:53.683Z,13.90
2018-09-03T01:34:22.094Z,13.90
2018-09-03T01:36:50.250Z,13.90
2018-09-03T01:39:18.474Z,13.90
2018-09-03T01:41:46.637Z,13.90
2018-09-03T01:44:14.812Z,13.90
2018-09-03T01:46:42.970Z,13.90
2018-09-03T01:49:11.131Z,13.90
2018-09-03T01:51:39.278Z,13.90
2018-09-03T01:54:07.425Z,13.90
2018-09-03T01:56:35.594Z,13.90
2018-09-03T01:59:03.855Z,13.90
2018-09-03T02:01:32.015Z,13.90
2018-09-03T02:04:00.161Z,13.90
2018-09-03T02:06:28.362Z,14.00
2018-09-03T02:08:56.522Z,14.00
2018-09-03T02:11:24.675Z,13.90
2018-09-03T02:13:52.841Z,13.90
2018-09-03T02:21:15.278Z,13.90
2018-09-03T02:23:43.430Z,13.90
2018-09-03T02:26:11.676Z,14.00
2018-09-03T02:28:39.921Z,14.00
2018-09-03T02:31:08.091Z,14.00
2018-09-03T02:33:36.249Z,14.00
2018-09-03T02:36:04.445Z,14.00
2018-09-03T02:38:32.618Z,14.00
2018-09-03T02:41:00.790Z,14.00
2018-09-03T02:43:28.995Z,14.00
2018-09-03T02:45:57.158Z,14.00
2018-09-03T02:48:25.335Z,14.00
2018-09-03T02:50:53.489Z,14.00
2018-09-03T02:53:21.674Z,14.00
2018-09-03T02:55:49.845Z,14.00
2018-09-03T02:58:18.009Z,14.00
2018-09-03T03:00:46.186Z,14.00
2018-09-03T03:03:14.358Z,14.00
2018-09-03T03:05:42.522Z,14.00
2018-09-03T03:08:10.734Z,14.00
2018-09-03T03:10:38.903Z,13.90
2018-09-03T03:13:07.120Z,13.90
2018-09-03T03:15:35.282Z,13.90
2018-09-03T03:18:03.450Z,13.90
2018-09-03T03:20:31.647Z,13.90
2018-09-03T03:22:59.825Z,13.90
2018-09-03T03:25:27.999Z,13.90
2018-09-03T03:27:56.225Z,13.90
2018-09-03T03:30:24.402Z,13.90
2018-09-03T03:32:52.570Z,13.90
2018-09-03T03:35:20.737Z,13.90
2018-09-03T03:37:49.554Z,13.90
2018-09-03T03:40:18.855Z,13.90
2018-09-03T03:42:47.021Z,13.90
2018-09-03T03:45:15.201Z,13.90
2018-09-03T03:47:43.365Z,13.90
2018-09-03T03:50:11.543Z,13.90
2018-09-03T03:52:39.726Z,13.90
2018-09-03T03:55:08.286Z,13.90
2018-09-03T03:57:37.087Z,13.90
2018-09-03T04:00:05.329Z,13.90
2018-09-03T04:02:33.549Z,13.90
2018-09-03T04:05:01.772Z,13.90
2018-09-03T04:07:29.952Z,13.90
2018-09-03T04:09:58.126Z,13.90
2018-09-03T04:12:26.313Z,13.90
2018-09-03T04:14:54.497Z,13.90
2018-09-03T04:17:22.666Z,13.90
2018-09-03T04:19:56.195Z,13.90
2018-09-03T04:22:24.366Z,13.90
2018-09-03T04:24:52.546Z,13.90
2018-09-03T04:27:20.706Z,13.90
2018-09-03T04:29:48.898Z,13.90
2018-09-03T04:32:17.071Z,13.90
2018-09-03T04:34:45.290Z,13.90
2018-09-03T04:37:13.540Z,13.90
2018-09-03T04:39:41.689Z,13.90
2018-09-03T04:42:09.866Z,13.90
2018-09-03T04:44:38.034Z,13.90
2018-09-03T04:47:06.213Z,13.90
2018-09-03T04:49:34.886Z,13.90
2018-09-03T04:52:03.064Z,13.90
2018-09-03T04:54:31.267Z,13.90
2018-09-03T04:56:59.402Z,14.00
2018-09-03T04:59:27.569Z,14.00
2018-09-03T05:01:55.750Z,14.00
2018-09-03T05:04:23.927Z,14.00
2018-09-03T05:06:52.147Z,14.00
2018-09-03T05:09:20.338Z,14.00
2018-09-03T05:11:48.658Z,14.00
2018-09-03T05:14:16.894Z,14.00
2018-09-03T05:16:45.066Z,14.00
2018-09-03T05:19:13.272Z,13.90
2018-09-03T05:21:41.443Z,13.90
2018-09-03T05:24:09.619Z,13.90
2018-09-03T05:26:37.797Z,13.90
2018-09-03T05:29:06.041Z,14.00
2018-09-03T05:31:34.226Z,14.00
2018-09-03T05:34:02.422Z,14.00
2018-09-03T05:36:30.594Z,14.00
2018-09-03T05:38:58.774Z,14.00
2018-09-03T05:41:26.937Z,14.00
2018-09-03T05:43:55.169Z,14.00
2018-09-03T05:46:23.290Z,14.00
2018-09-03T05:48:51.462Z,14.00
2018-09-03T05:51:19.642Z,13.90
2018-09-03T05:53:47.851Z,13.90
2018-09-03T05:56:15.967Z,13.90
2018-09-03T05:58:44.135Z,13.90
2018-09-03T06:01:12.294Z,14.00
2018-09-03T06:03:40.488Z,14.00
2018-09-03T06:06:08.657Z,14.00
2018-09-03T06:08:36.834Z,14.10
2018-09-03T06:11:05.137Z,14.10
2018-09-03T06:13:33.245Z,14.10
2018-09-03T06:16:01.478Z,14.20
2018-09-03T06:18:29.648Z,14.30
2018-09-03T06:20:57.806Z,14.40
2018-09-03T06:23:25.988Z,14.50
2018-09-03T06:25:54.158Z,14.50
2018-09-03T06:28:22.331Z,14.50
2018-09-03T06:30:50.496Z,14.50
2018-09-03T06:33:18.686Z,14.60
2018-09-03T06:35:46.907Z,14.60
2018-09-03T06:38:15.030Z,14.60
2018-09-03T06:40:43.189Z,14.60
2018-09-03T06:43:11.381Z,14.70
2018-09-03T06:45:39.619Z,14.70
2018-09-03T06:48:07.804Z,14.70
2018-09-03T06:50:35.986Z,14.70
2018-09-03T06:53:04.165Z,14.80
2018-09-03T06:55:32.341Z,14.80
2018-09-03T06:58:00.537Z,14.80
2018-09-03T07:00:28.711Z,14.70
2018-09-03T07:02:56.880Z,14.80
2018-09-03T07:05:25.070Z,14.80
2018-09-03T07:07:53.235Z,14.80
2018-09-03T07:10:21.421Z,14.90
2018-09-03T07:12:49.634Z,14.80
2018-09-03T07:15:17.797Z,14.80
2018-09-03T07:17:46.007Z,14.90
2018-09-03T07:20:14.326Z,14.90
2018-09-03T07:22:42.511Z,15.00
2018-09-03T07:25:10.679Z,15.00
2018-09-03T07:27:39.069Z,15.10
2018-09-03T07:30:07.265Z,15.20
2018-09-03T07:32:35.456Z,15.30
2018-09-03T07:35:03.801Z,15.40
2018-09-03T07:37:31.905Z,15.50
2018-09-03T07:40:00.146Z,15.70
2018-09-03T07:42:28.322Z,15.80
2018-09-03T07:44:56.502Z,15.90
2018-09-03T07:47:24.641Z,16.00
2018-09-03T07:49:52.836Z,16.10
2018-09-03T07:52:21.048Z,16.40
2018-09-03T07:54:49.242Z,16.50
2018-09-03T07:57:17.411Z,16.70
2018-09-03T07:59:45.615Z,16.90
2018-09-03T08:02:13.799Z,17.10
2018-09-03T08:04:42.022Z,17.20
2018-09-03T08:07:10.235Z,17.30
2018-09-03T08:09:38.490Z,17.50
2018-09-03T08:12:06.887Z,17.40
2018-09-03T08:14:35.115Z,17.40
2018-09-03T08:17:03.299Z,17.30
2018-09-03T08:19:31.470Z,17.40
2018-09-03T08:22:00.095Z,17.50
2018-09-03T08:24:28.282Z,17.50
2018-09-03T08:26:56.465Z,17.50
2018-09-03T08:29:24.630Z,17.50
2018-09-03T08:31:52.805Z,17.50
2018-09-03T08:34:20.982Z,17.50
2018-09-03T08:36:49.206Z,17.70
2018-09-03T08:39:17.454Z,17.80
2018-09-03T08:41:45.614Z,17.70
2018-09-03T08:44:13.799Z,17.60
2018-09-03T08:46:42.020Z,17.60
2018-09-03T08:49:10.185Z,17.70
2018-09-03T08:51:38.327Z,17.80
2018-09-03T08:54:06.547Z,17.70
2018-09-03T08:56:34.822Z,17.70
2018-09-03T08:59:02.967Z,17.70
2018-09-03T09:01:31.122Z,17.90
2018-09-03T09:03:59.281Z,17.90
2018-09-03T09:06:27.457Z,18.10
2018-09-03T09:08:55.594Z,18.20
2018-09-03T09:11:23.754Z,18.20
2018-09-03T09:13:51.913Z,18.30
2018-09-03T09:16:20.079Z,18.30
2018-09-03T09:18:48.226Z,18.40
2018-09-03T09:21:16.412Z,18.50
2018-09-03T09:23:44.576Z,18.60
2018-09-03T09:26:12.711Z,18.50
2018-09-03T09:28:40.854Z,18.40
2018-09-03T09:31:09.034Z,18.40
2018-09-03T09:33:37.342Z,18.40
2018-09-03T09:36:05.484Z,18.40
2018-09-03T09:38:33.651Z,18.50
2018-09-03T09:41:01.822Z,18.40
2018-09-03T09:43:29.972Z,18.40
2018-09-03T09:45:58.102Z,18.50
2018-09-03T09:48:26.276Z,18.60
2018-09-03T09:50:54.430Z,18.50
2018-09-03T09:53:22.583Z,18.50
2018-09-03T09:55:50.742Z,16.90
2018-09-03T09:58:18.914Z,18.50
2018-09-03T10:00:52.329Z,18.40
2018-09-03T10:03:20.499Z,18.40
2018-09-03T10:05:48.656Z,18.30
2018-09-03T10:08:16.849Z,18.30
2018-09-03T10:10:45.023Z,18.40
2018-09-03T10:13:13.186Z,18.40
2018-09-03T10:15:41.351Z,18.50
2018-09-03T10:18:09.502Z,18.50
2018-09-03T10:20:37.644Z,18.60
2018-09-03T10:23:05.918Z,18.70
2018-09-03T10:25:34.062Z,18.70
2018-09-03T10:28:02.233Z,18.70
2018-09-03T10:30:30.404Z,18.80
2018-09-03T10:32:58.579Z,18.70
2018-09-03T10:35:26.750Z,18.70
2018-09-03T10:37:54.906Z,18.90
2018-09-03T10:40:23.098Z,18.90
2018-09-03T10:42:51.270Z,18.90
2018-09-03T10:45:19.452Z,18.90
2018-09-03T10:47:47.662Z,18.90
2018-09-03T10:50:16.237Z,18.80
2018-09-03T10:52:44.421Z,18.80
2018-09-03T10:55:12.602Z,18.80
2018-09-03T10:57:40.779Z,18.80
2018-09-03T11:00:08.923Z,18.80
2018-09-03T11:02:37.056Z,18.90
2018-09-03T11:05:05.178Z,18.90
2018-09-03T11:07:33.338Z,19.00
2018-09-03T11:10:01.462Z,19.00
2018-09-03T11:12:29.602Z,19.00
2018-09-03T11:14:57.745Z,19.00
2018-09-03T11:17:25.920Z,18.90
2018-09-03T11:19:56.400Z,18.90
2018-09-03T11:22:24.749Z,18.80
2018-09-03T11:24:52.853Z,18.70
2018-09-03T11:27:20.986Z,18.70
2018-09-03T11:29:49.116Z,18.80
2018-09-03T11:32:17.243Z,18.90
2018-09-03T11:34:45.730Z,18.90
2018-09-03T11:37:14.029Z,18.90
2018-09-03T11:39:42.159Z,18.80
2018-09-03T11:42:10.298Z,18.80
2018-09-03T11:44:38.470Z,18.80
2018-09-03T11:47:06.654Z,18.80
2018-09-03T11:49:34.781Z,18.80
2018-09-03T11:52:02.986Z,18.80
2018-09-03T11:54:31.155Z,18.70
2018-09-03T11:56:59.287Z,18.60
2018-09-03T11:59:27.430Z,18.60
2018-09-03T12:01:55.638Z,18.70
2018-09-03T12:04:23.758Z,18.70
2018-09-03T12:06:51.899Z,18.70
2018-09-03T12:09:20.043Z,18.60
2018-09-03T12:11:48.179Z,18.60
2018-09-03T12:14:20.273Z,18.60
2018-09-03T12:16:48.412Z,18.50
2018-09-03T12:19:16.597Z,18.50
2018-09-03T12:21:44.756Z,18.30
2018-09-03T12:24:12.898Z,18.30
2018-09-03T12:26:41.022Z,18.30
2018-09-03T12:29:09.183Z,18.20
2018-09-03T12:31:37.309Z,18.20
2018-09-03T12:34:05.463Z,18.20
2018-09-03T12:36:33.598Z,18.20
2018-09-03T12:39:01.750Z,18.10
2018-09-03T12:41:29.902Z,18.00
2018-09-03T12:43:58.259Z,18.00
2018-09-03T12:46:26.490Z,18.00
2018-09-03T12:48:54.616Z,18.00
2018-09-03T12:51:22.798Z,18.00
2018-09-03T12:53:50.894Z,18.10
2018-09-03T12:56:19.026Z,18.20
2018-09-03T12:58:47.201Z,18.20
2018-09-03T13:01:15.315Z,18.30
2018-09-03T13:03:43.451Z,18.40
2018-09-03T13:06:11.905Z,18.40
2018-09-03T13:08:39.982Z,18.30
2018-09-03T13:11:08.102Z,18.40
2018-09-03T13:13:36.242Z,18.30
2018-09-03T13:16:04.419Z,18.30
2018-09-03T13:18:32.554Z,18.20
2018-09-03T13:21:00.695Z,18.20
2018-09-03T13:23:28.835Z,18.20
2018-09-03T13:25:56.990Z,18.30
2018-09-03T13:28:25.128Z,18.50
2018-09-03T13:30:53.330Z,18.50
2018-09-03T13:33:21.379Z,18.50
2018-09-03T13:35:49.526Z,18.70
2018-09-03T13:38:17.682Z,18.70
2018-09-03T13:40:45.832Z,18.70
2018-09-03T13:43:14.127Z,18.80
2018-09-03T13:45:42.353Z,18.80
2018-09-03T13:48:10.529Z,18.90
2018-09-03T13:50:38.623Z,19.00
2018-09-03T13:53:06.762Z,19.10
2018-09-03T13:55:34.972Z,19.10
2018-09-03T13:58:03.098Z,19.10
2018-09-03T14:00:31.246Z,19.10
2018-09-03T14:02:59.378Z,19.20
2018-09-03T14:05:27.518Z,19.30
2018-09-03T14:07:55.674Z,19.30
2018-09-03T14:10:23.795Z,19.30
2018-09-03T14:12:51.942Z,19.40
2018-09-03T14:15:20.065Z,19.60
2018-09-03T14:17:48.182Z,19.60
2018-09-03T14:20:16.403Z,19.60
2018-09-03T14:22:44.569Z,19.60
2018-09-03T14:25:12.743Z,19.70
2018-09-03T14:27:40.890Z,19.70
2018-09-03T14:30:08.994Z,19.80
2018-09-03T14:32:37.134Z,20.00
2018-09-03T14:35:05.286Z,20.10
2018-09-03T14:37:33.440Z,20.10
2018-09-03T14:40:01.576Z,20.10
2018-09-03T14:42:29.727Z,20.00
2018-09-03T14:44:57.860Z,20.00
2018-09-03T14:47:26.014Z,20.00
2018-09-03T14:49:54.150Z,20.00
2018-09-03T14:52:22.292Z,20.10
2018-09-03T14:54:50.430Z,20.00
2018-09-03T14:57:18.558Z,20.00
2018-09-03T14:59:46.680Z,20.00
2018-09-03T15:02:14.876Z,20.00
2018-09-03T15:04:42.965Z,20.00
2018-09-03T15:07:11.122Z,20.00
2018-09-03T15:09:39.251Z,20.00
2018-09-03T15:12:07.458Z,19.90
2018-09-03T15:14:35.618Z,19.80
2018-09-03T15:17:03.750Z,19.80
2018-09-03T15:19:31.883Z,19.80
2018-09-03T15:22:00.012Z,19.90
2018-09-03T15:24:28.158Z,19.90
2018-09-03T15:26:56.335Z,19.90
2018-09-03T15:29:24.483Z,19.90
2018-09-03T15:31:52.649Z,19.70
2018-09-03T15:34:20.791Z,19.80
2018-09-03T15:36:48.928Z,19.80
2018-09-03T15:39:17.198Z,19.90
2018-09-03T15:41:45.354Z,19.90
2018-09-03T15:44:13.477Z,20.00
2018-09-03T15:46:41.605Z,20.00
2018-09-03T15:49:09.940Z,20.00
2018-09-03T15:51:37.915Z,20.00
2018-09-03T15:54:06.207Z,19.90
2018-09-03T15:56:34.203Z,19.90
2018-09-03T15:59:02.347Z,19.80
2018-09-03T16:01:30.514Z,19.70
2018-09-03T16:03:58.651Z,19.80
2018-09-03T16:06:26.791Z,19.70
2018-09-03T16:08:54.955Z,19.70
2018-09-03T16:11:23.146Z,19.70
2018-09-03T16:13:51.310Z,19.60
2018-09-03T16:16:19.495Z,19.60
2018-09-03T16:18:47.628Z,19.60
2018-09-03T16:21:15.979Z,19.50
2018-09-03T16:23:44.105Z,19.50
2018-09-03T16:26:12.235Z,19.40
2018-09-03T16:28:40.416Z,19.40
2018-09-03T16:31:08.631Z,19.40
2018-09-03T16:33:36.774Z,19.30
2018-09-03T16:36:04.942Z,19.30
2018-09-03T16:38:33.369Z,19.30
2018-09-03T16:41:01.558Z,19.30
2018-09-03T16:43:29.706Z,19.30
2018-09-03T16:45:57.838Z,19.20
2018-09-03T16:48:25.970Z,19.20
2018-09-03T16:50:54.114Z,19.20
2018-09-03T16:53:22.263Z,19.20
2018-09-03T16:55:50.431Z,19.10
2018-09-03T16:58:18.559Z,19.10
2018-09-03T17:00:46.740Z,19.10
2018-09-03T17:03:14.814Z,19.00
2018-09-03T17:05:42.938Z,19.00
2018-09-03T17:08:11.261Z,18.90
2018-09-03T17:10:39.299Z,18.90
2018-09-03T17:13:07.430Z,18.80
2018-09-03T17:15:35.614Z,18.80
2018-09-03T17:18:03.830Z,18.80
2018-09-03T17:20:32.070Z,18.80
2018-09-03T17:23:00.194Z,18.80
2018-09-03T17:25:28.339Z,18.70
2018-09-03T17:27:56.494Z,18.70
2018-09-03T17:30:24.670Z,18.70
2018-09-03T17:32:52.850Z,18.70
2018-09-03T17:35:20.979Z,18.70
2018-09-03T17:37:49.117Z,18.70
2018-09-03T17:40:17.283Z,18.60
2018-09-03T17:42:45.425Z,18.60
2018-09-03T17:45:13.613Z,18.50
2018-09-03T17:47:41.822Z,18.50
2018-09-03T17:50:10.045Z,18.40
2018-09-03T17:52:38.190Z,18.30
2018-09-03T17:55:07.324Z,18.20
2018-09-03T17:57:35.493Z,18.10
2018-09-03T18:00:03.673Z,18.00
2018-09-03T18:02:31.796Z,17.90
2018-09-03T18:04:59.967Z,17.80
2018-09-03T18:07:28.099Z,17.70
2018-09-03T18:09:56.294Z,17.70
2018-09-03T18:12:24.478Z,17.60
2018-09-03T18:14:52.634Z,17.50
2018-09-03T18:17:20.754Z,17.40
2018-09-03T18:19:48.890Z,17.30
2018-09-03T18:22:17.037Z,17.20
2018-09-03T18:24:45.182Z,17.10
2018-09-03T18:27:13.316Z,17.10
2018-09-03T18:29:41.454Z,17.00
2018-09-03T18:32:09.642Z,16.90
2018-09-03T18:34:37.817Z,16.80
2018-09-03T18:37:06.023Z,16.70
2018-09-03T18:39:34.122Z,16.60
2018-09-03T18:42:02.405Z,16.60
2018-09-03T18:44:30.405Z,16.50
2018-09-03T18:46:58.597Z,16.60
2018-09-03T18:49:26.710Z,16.50
2018-09-03T18:51:54.894Z,16.50
2018-09-03T18:54:23.019Z,16.50
2018-09-03T18:56:51.210Z,16.50
2018-09-03T18:59:19.388Z,16.50
2018-09-03T19:01:47.527Z,16.50
2018-09-03T19:04:15.667Z,16.40
2018-09-03T19:06:43.802Z,16.40
2018-09-03T19:09:11.939Z,16.30
2018-09-03T19:11:40.091Z,16.20
2018-09-03T19:14:08.522Z,16.10
2018-09-03T19:16:36.694Z,16.10
2018-09-03T19:19:04.830Z,16.00
2018-09-03T19:21:33.027Z,16.00
2018-09-03T19:24:01.191Z,16.00
2018-09-03T19:26:29.339Z,16.00
2018-09-03T19:28:57.452Z,15.90
2018-09-03T19:31:25.611Z,15.80
2018-09-03T19:33:53.747Z,15.70
2018-09-03T19:36:21.915Z,15.60
2018-09-03T19:38:50.063Z,15.60
2018-09-03T19:41:18.223Z,15.60
2018-09-03T19:43:46.378Z,15.60
2018-09-03T19:46:14.574Z,15.60
2018-09-03T19:48:42.792Z,15.60
2018-09-03T19:51:10.827Z,15.40
2018-09-03T19:53:38.976Z,15.30
2018-09-03T19:56:07.131Z,15.20
2018-09-03T19:58:35.267Z,15.20
2018-09-03T20:01:03.398Z,15.10
2018-09-03T20:03:31.527Z,15.10
2018-09-03T20:05:59.775Z,15.00
2018-09-03T20:08:28.000Z,15.00
2018-09-03T20:10:56.139Z,15.00
2018-09-03T20:13:24.326Z,15.00
2018-09-03T20:15:52.522Z,14.90
2018-09-03T20:18:20.677Z,14.90
2018-09-03T20:20:48.802Z,14.80
2018-09-03T20:23:17.015Z,14.80
2018-09-03T20:25:45.145Z,14.80
2018-09-03T20:28:13.334Z,14.80
2018-09-03T20:30:41.603Z,14.70
2018-09-03T20:33:09.686Z,14.70
2018-09-03T20:35:37.854Z,14.70
2018-09-03T20:38:06.006Z,14.60
2018-09-03T20:40:34.141Z,14.50
2018-09-03T20:43:02.672Z,14.50
2018-09-03T20:45:30.791Z,14.50
2018-09-03T20:47:59.014Z,14.50
2018-09-03T20:50:27.171Z,14.50
2018-09-03T20:52:55.314Z,14.50
2018-09-03T20:55:23.481Z,14.40
2018-09-03T20:57:51.633Z,14.30
2018-09-03T21:00:19.769Z,14.30
2018-09-03T21:02:47.941Z,14.30
2018-09-03T21:05:16.093Z,14.30
2018-09-03T21:07:44.250Z,14.30
2018-09-03T21:10:12.432Z,14.30
2018-09-03T21:12:40.605Z,14.20
2018-09-03T21:15:08.789Z,14.20
2018-09-03T21:17:36.914Z,14.20
2018-09-03T21:20:05.774Z,14.30
2018-09-03T21:22:33.961Z,14.20
2018-09-03T21:25:02.116Z,14.10
2018-09-03T21:27:30.279Z,13.90
2018-09-03T21:29:58.430Z,13.80
2018-09-03T21:32:26.577Z,13.70
2018-09-03T21:34:54.790Z,13.60
2018-09-03T21:37:22.949Z,13.60
2018-09-03T21:39:51.127Z,13.50
2018-09-03T21:42:19.273Z,13.60
2018-09-03T21:44:47.434Z,13.60
2018-09-03T21:47:15.720Z,13.60
2018-09-03T21:49:43.862Z,13.50
2018-09-03T21:52:12.011Z,13.50
2018-09-03T21:54:40.169Z,13.60
2018-09-03T21:57:08.310Z,13.50
2018-09-03T21:59:36.454Z,13.50
2018-09-03T22:02:08.326Z,13.40
2018-09-03T22:04:37.198Z,13.40
2018-09-03T22:07:05.351Z,13.40
2018-09-03T22:09:33.534Z,13.40
2018-09-03T22:12:01.700Z,13.40
2018-09-03T22:14:30.154Z,13.30
2018-09-03T22:16:58.406Z,13.20
2018-09-03T22:19:26.576Z,13.20
2018-09-03T22:21:54.798Z,13.10
2018-09-03T22:24:22.933Z,13.00
2018-09-03T22:26:51.298Z,12.90
2018-09-03T22:29:19.458Z,12.80
2018-09-03T22:31:47.618Z,12.80
2018-09-03T22:34:15.770Z,12.70
2018-09-03T22:36:44.194Z,12.70
2018-09-03T22:39:12.462Z,12.80
2018-09-03T22:41:40.632Z,12.80
2018-09-03T22:44:08.786Z,12.80
2018-09-03T22:46:36.932Z,12.80
2018-09-03T22:49:05.258Z,12.90
2018-09-03T22:51:33.421Z,12.90
2018-09-03T22:54:01.585Z,13.00
2018-09-03T22:56:29.742Z,13.00
2018-09-03T22:58:57.874Z,12.90
2018-09-03T23:01:26.027Z,12.90
2018-09-03T23:03:54.225Z,12.90
2018-09-03T23:06:22.387Z,13.00
2018-09-03T23:08:50.538Z,13.00
2018-09-03T23:11:18.709Z,13.10
2018-09-03T23:13:46.866Z,13.10
2018-09-03T23:16:15.154Z,13.10
2018-09-03T23:18:43.314Z,13.20
2018-09-03T23:21:11.479Z,13.20
2018-09-03T23:23:39.638Z,13.20
2018-09-03T23:26:07.797Z,13.20
2018-09-03T23:28:35.950Z,13.20
2018-09-03T23:31:04.108Z,13.20
2018-09-03T23:33:32.266Z,13.20
2018-09-03T23:36:00.421Z,13.20
2018-09-03T23:38:28.566Z,13.30
2018-09-03T23:40:56.723Z,13.30
2018-09-03T23:43:24.877Z,13.40
2018-09-03T23:45:53.041Z,13.40
2018-09-03T23:48:21.198Z,13.40
2018-09-03T23:50:49.330Z,13.40
2018-09-03T23:53:17.546Z,13.40
2018-09-03T23:55:45.711Z,13.30
2018-09-03T23:58:13.919Z,13.20
